Time;durP1;ratioP1;P1;durP2;ratioP2;P2;SDS_P1;SDS_P2;PMS_P1;PMS_P2;Temp;Humidity;BMP_temperature;BMP_pressure;BME280_temperature;BME280_humidity;BME280_pressure;Samples;Min_cycle;Max_cycle;Signal;HPM_P1;HPM_P2
2022/10/08 00:01:00;;;;;;;41.10;22.50;;;;;;;9.18;78.58;99274.13;86616;1295;25891;-77
2022/10/08 00:03:06;;;;;;;42.60;22.90;;;;;;;9.19;78.73;99270.62;86718;1305;22557;-76
2022/10/08 00:05:08;;;;;;;37.10;21.50;;;;;;;9.18;78.73;99270.63;86452;1309;98964;-77
2022/10/08 00:07:10;;;;;;;37.50;21.00;;;;;;;9.17;78.83;99270.14;86506;1311;22502;-76
2022/10/08 00:09:12;;;;;;;34.10;20.60;;;;;;;9.16;78.55;99268.06;86602;1298;23298;-77
2022/10/08 00:11:16;;;;;;;36.00;20.80;;;;;;;9.15;78.76;99264.97;86549;1313;97564;-76
2022/10/08 00:13:18;;;;;;;28.50;19.60;;;;;;;9.14;78.81;99265.00;86567;1284;26565;-76
2022/10/08 00:15:20;;;;;;;31.40;19.40;;;;;;;9.14;78.67;99260.96;86625;1310;22416;-77
2022/10/08 00:17:22;;;;;;;29.40;19.00;;;;;;;9.13;78.65;99257.69;86473;1311;97876;-78
2022/10/08 00:19:23;;;;;;;25.20;18.60;;;;;;;9.10;78.62;99253.04;86698;1310;22729;-77
2022/10/08 00:21:29;;;;;;;30.30;18.40;;;;;;;9.06;78.58;99251.63;86697;1307;24198;-77
2022/10/08 00:23:32;;;;;;;35.40;18.10;;;;;;;9.00;78.33;99249.22;86540;1296;98760;-77
2022/10/08 00:25:42;;;;;;;24.90;18.40;;;;;;;8.97;78.91;99244.24;86634;1304;22707;-77
2022/10/08 00:27:44;;;;;;;35.00;17.80;;;;;;;8.96;78.56;99244.62;86545;1292;25258;-76
2022/10/08 00:29:46;;;;;;;32.10;19.20;;;;;;;8.90;78.47;99238.34;86502;1295;98691;-77
2022/10/08 00:31:49;;;;;;;35.80;18.00;;;;;;;8.83;78.69;99240.54;86692;1310;22613;-77
2022/10/08 00:33:55;;;;;;;29.50;18.30;;;;;;;8.79;78.88;99236.83;86502;1303;24250;-77
2022/10/08 00:36:00;;;;;;;35.10;17.20;;;;;;;8.77;78.53;99236.23;86485;1292;97769;-77
2022/10/08 00:38:02;;;;;;;31.00;17.50;;;;;;;8.73;78.64;99235.81;86636;1310;22519;-78
2022/10/08 00:40:04;;;;;;;24.70;17.70;;;;;;;8.70;78.89;99238.58;86534;1310;24254;-77
2022/10/08 00:42:06;;;;;;;25.80;17.10;;;;;;;8.66;78.63;99239.23;86522;1301;98629;-78
2022/10/08 00:44:50;;;;;;;29.30;17.20;;;;;;;8.64;78.67;99238.61;86585;1309;24253;-76
2022/10/08 00:46:53;;;;;;;30.00;18.10;;;;;;;8.59;78.60;99237.91;86598;1302;98893;-77
2022/10/08 00:49:01;;;;;;;21.20;16.70;;;;;;;8.55;79.21;99231.38;86676;1291;22787;-77
2022/10/08 00:51:04;;;;;;;28.50;17.00;;;;;;;8.54;78.99;99227.95;86658;1301;24395;-78
2022/10/08 00:53:07;;;;;;;26.60;17.40;;;;;;;8.51;79.00;99225.06;86341;1312;98925;-78
2022/10/08 00:55:12;;;;;;;29.30;17.60;;;;;;;8.50;79.12;99225.27;86613;1297;24308;-77
2022/10/08 00:57:15;;;;;;;30.10;17.70;;;;;;;8.48;78.66;99221.66;86704;1310;22526;-77
2022/10/08 00:59:18;;;;;;;31.40;17.90;;;;;;;8.47;79.03;99221.00;86384;1294;98872;-77
2022/10/08 01:01:20;;;;;;;30.60;19.10;;;;;;;8.45;78.87;99222.48;86718;1310;22620;-77
2022/10/08 01:03:21;;;;;;;26.90;17.60;;;;;;;8.44;79.23;99216.01;86605;1309;22602;-77
2022/10/08 01:05:38;;;;;;;38.50;18.10;;;;;;;8.43;79.23;99216.89;86344;1305;98734;-77
2022/10/08 01:07:42;;;;;;;35.50;19.00;;;;;;;8.41;79.00;99215.03;86723;1309;22477;-77
2022/10/08 01:10:12;;;;;;;23.10;17.80;;;;;;;8.41;79.26;99217.67;86646;1307;22510;-78
2022/10/08 01:12:44;;;;;;;31.80;18.40;;;;;;;8.38;79.29;99211.66;86576;1309;97419;-77
2022/10/08 01:14:58;;;;;;;41.40;19.10;;;;;;;8.34;78.96;99208.47;86625;1302;22634;-78
2022/10/08 01:17:14;;;;;;;28.10;18.90;;;;;;;8.30;78.88;99206.33;86559;1310;98022;-77
2022/10/08 01:19:42;;;;;;;41.30;20.60;;;;;;;8.28;79.06;99210.61;86591;1309;22541;-78
2022/10/08 01:22:14;;;;;;;43.80;20.10;;;;;;;8.27;79.33;99207.50;86419;1313;23627;-78
2022/10/08 01:24:22;;;;;;;37.00;21.20;;;;;;;8.24;79.11;99204.62;86227;1298;99123;-76
2022/10/08 01:26:32;;;;;;;33.80;21.20;;;;;;;8.19;78.94;99203.05;86322;1312;25223;-78
2022/10/08 01:28:43;;;;;;;39.40;21.70;;;;;;;8.15;78.87;99200.90;86250;1312;22485;-78
2022/10/08 01:30:53;;;;;;;43.80;24.40;;;;;;;8.05;79.04;99180.09;86267;1301;22474;-78
2022/10/08 01:33:01;;;;;;;44.50;23.70;;;;;;;8.15;79.34;99196.69;86312;1315;22467;-77
2022/10/08 01:35:10;;;;;;;50.70;23.50;;;;;;;8.15;79.05;99194.97;86273;1316;97978;-77
2022/10/08 01:37:19;;;;;;;42.00;24.20;;;;;;;8.13;79.13;99195.02;86261;1313;22508;-77
2022/10/08 01:39:28;;;;;;;41.60;22.30;;;;;;;8.11;79.05;99192.27;86175;1315;23158;-77
2022/10/08 01:41:32;;;;;;;31.50;21.70;;;;;;;8.08;79.18;99190.47;86046;1293;98997;-77
2022/10/08 01:43:39;;;;;;;37.20;22.30;;;;;;;8.08;79.54;99192.58;86393;1313;22598;-77
2022/10/08 01:45:48;;;;;;;34.80;21.70;;;;;;;8.05;79.44;99188.30;86306;1314;22507;-77
2022/10/08 01:47:50;;;;;;;39.90;22.40;;;;;;;8.07;79.38;99195.07;86166;1291;97591;-77
2022/10/08 01:49:58;;;;;;;38.00;20.70;;;;;;;8.04;79.57;99190.95;86327;1313;22528;-77
2022/10/08 01:52:07;;;;;;;37.80;20.10;;;;;;;8.03;79.36;99192.92;86321;1315;22522;-77
2022/10/08 01:54:14;;;;;;;31.60;19.50;;;;;;;7.99;78.97;99191.80;86249;1307;97930;-77
2022/10/08 01:56:22;;;;;;;30.80;19.20;;;;;;;7.95;79.16;99189.66;86293;1314;24252;-78
2022/10/08 01:58:33;;;;;;;31.80;19.00;;;;;;;7.95;79.08;99193.36;86154;1298;25535;-78
2022/10/08 02:00:37;;;;;;;30.90;19.50;;;;;;;7.92;79.22;99192.05;86632;1307;97710;-78
2022/10/08 02:02:42;;;;;;;33.20;18.80;;;;;;;7.89;79.15;99186.04;86664;1307;22487;-78
2022/10/08 02:04:45;;;;;;;31.90;18.30;;;;;;;7.85;79.19;99184.77;86701;1285;97880;-76
2022/10/08 02:06:55;;;;;;;29.60;18.70;;;;;;;7.83;79.20;99183.42;86612;1293;22499;-75
2022/10/08 02:08:57;;;;;;;33.10;19.30;;;;;;;7.80;79.13;99181.27;86602;1293;22412;-77
2022/10/08 02:10:58;;;;;;;34.60;17.70;;;;;;;7.80;79.14;99180.93;86483;1310;97650;-77
2022/10/08 02:13:00;;;;;;;31.60;18.30;;;;;;;7.79;79.34;99183.21;86589;1296;22730;-78
2022/10/08 02:15:04;;;;;;;31.00;19.40;;;;;;;7.79;79.44;99181.46;86669;1301;22566;-77
2022/10/08 02:17:38;;;;;;;38.20;17.80;;;;;;;7.79;79.39;99181.11;86534;1310;98775;-78
2022/10/08 02:19:45;;;;;;;36.60;18.30;;;;;;;7.79;79.41;99177.63;86729;1304;22524;-77
2022/10/08 02:21:51;;;;;;;48.40;19.50;;;;;;;7.77;79.34;99177.52;86710;1307;22475;-77
2022/10/08 02:24:08;;;;;;;28.90;18.80;;;;;;;7.75;79.60;99174.95;86532;1306;97675;-78
2022/10/08 02:26:16;;;;;;;38.70;19.10;;;;;;;7.76;79.33;99174.77;87067;1308;22555;-77
2022/10/08 02:28:47;;;;;;;33.50;17.80;;;;;;;7.74;79.54;99173.95;86948;1309;22612;-77
2022/10/08 02:31:03;;;;;;;31.30;18.40;;;;;;;7.72;79.61;99175.75;86913;1307;25945;-77
2022/10/08 02:33:14;;;;;;;27.30;18.70;;;;;;;7.73;79.33;99175.39;86993;1295;22681;-77
2022/10/08 02:35:25;;;;;;;32.30;18.20;;;;;;;7.72;79.37;99176.99;86745;1295;97541;-78
2022/10/08 02:37:31;;;;;;;;;;;;;;;7.64;79.56;99170.61;86850;1310;23694;-78
2022/10/08 02:39:37;;;;;;;28.40;16.10;;;;;;;7.67;79.40;99176.07;86737;1294;22610;-78
2022/10/08 02:41:48;;;;;;;26.60;17.70;;;;;;;7.66;79.76;99172.62;86622;1310;97525;-78
2022/10/08 02:43:52;;;;;;;37.90;18.00;;;;;;;7.65;79.68;99173.36;86954;1291;25508;-78
2022/10/08 02:46:17;;;;;;;27.00;17.10;;;;;;;7.61;79.68;99170.70;86808;1309;23802;-78
2022/10/08 02:48:25;;;;;;;25.80;17.10;;;;;;;7.63;79.75;99171.14;86756;1285;98168;-77
2022/10/08 02:50:30;;;;;;;36.50;16.80;;;;;;;7.63;79.64;99171.67;86689;1309;23225;-77
2022/10/08 02:52:37;;;;;;;41.30;17.20;;;;;;;7.60;79.75;99171.42;86651;1309;25280;-77
2022/10/08 02:54:43;;;;;;;32.00;16.60;;;;;;;7.58;79.86;99176.38;86547;1309;97383;-78
2022/10/08 02:57:05;;;;;;;26.10;17.10;;;;;;;7.58;79.79;99175.86;86671;1295;22554;-78
2022/10/08 02:59:09;;;;;;;23.50;16.60;;;;;;;7.56;79.75;99177.14;86629;1310;97715;-77
2022/10/08 03:01:32;;;;;;;35.10;15.80;;;;;;;7.55;79.79;99177.90;86655;1307;24263;-78
2022/10/08 03:03:39;;;;;;;32.10;16.10;;;;;;;7.54;79.98;99175.48;86796;1292;23218;-77
2022/10/08 03:05:42;;;;;;;21.40;16.60;;;;;;;7.52;79.90;99177.30;86597;1292;98365;-78
2022/10/08 03:07:46;;;;;;;27.00;16.70;;;;;;;7.50;79.62;99175.95;86783;1285;22516;-78
2022/10/08 03:09:50;;;;;;;19.20;15.50;;;;;;;7.50;79.68;99173.15;86533;1310;22759;-77
2022/10/08 03:11:53;;;;;;;27.40;15.80;;;;;;;7.47;79.62;99172.70;86670;1310;97974;-78
2022/10/08 03:13:57;;;;;;;27.00;15.30;;;;;;;7.49;79.72;99175.45;86747;1309;24298;-78
2022/10/08 03:15:59;;;;;;;44.00;16.70;;;;;;;7.41;79.87;99164.88;86768;1291;22511;-77
2022/10/08 03:18:05;;;;;;;23.50;16.40;;;;;;;7.45;79.59;99171.05;86656;1310;97783;-77
2022/10/08 03:20:10;;;;;;;37.40;18.20;;;;;;;7.45;79.80;99171.73;86680;1310;22624;-76
2022/10/08 03:22:11;;;;;;;34.60;17.40;;;;;;;7.44;79.88;99175.27;86709;1310;22513;-77
2022/10/08 03:24:14;;;;;;;24.60;16.20;;;;;;;7.41;79.92;99171.88;86488;1310;97718;-77
2022/10/08 03:26:17;;;;;;;25.80;16.30;;;;;;;7.40;80.00;99175.94;86567;1304;23718;-78
2022/10/08 03:28:19;;;;;;;28.00;16.40;;;;;;;7.37;79.84;99176.56;86667;1290;25514;-78
2022/10/08 03:30:21;;;;;;;28.40;17.00;;;;;;;7.35;79.73;99172.95;86455;1309;99026;-77
2022/10/08 03:32:23;;;;;;;26.70;16.60;;;;;;;7.33;79.81;99170.52;86720;1286;24241;-78
2022/10/08 03:34:25;;;;;;;29.10;18.70;;;;;;;7.33;80.11;99170.36;86470;1288;25939;-77
2022/10/08 03:36:28;;;;;;;24.90;17.60;;;;;;;7.30;79.83;99172.20;86736;1285;97657;-77
2022/10/08 03:38:33;;;;;;;23.30;17.30;;;;;;;7.30;79.95;99170.98;86589;1297;25973;-77
2022/10/08 03:40:34;;;;;;;24.80;17.60;;;;;;;7.27;80.08;99174.39;86701;1309;22629;-78
2022/10/08 03:42:36;;;;;;;27.50;17.10;;;;;;;7.26;79.96;99170.94;86523;1310;97876;-78
2022/10/08 03:44:38;;;;;;;25.70;17.20;;;;;;;7.26;80.14;99166.92;86783;1286;22684;-79
2022/10/08 03:46:40;;;;;;;22.00;16.40;;;;;;;7.27;80.00;99170.04;86708;1303;25639;-76
2022/10/08 03:48:41;;;;;;;32.40;17.60;;;;;;;7.25;80.48;99165.19;86697;1309;97740;-77
2022/10/08 03:50:55;;;;;;;29.40;17.20;;;;;;;7.25;80.01;99165.55;86758;1308;23266;-77
2022/10/08 03:52:56;;;;;;;22.70;16.50;;;;;;;7.26;80.30;99165.88;86701;1281;98900;-77
2022/10/08 03:54:58;;;;;;;25.80;16.80;;;;;;;7.22;80.21;99159.70;86730;1278;22797;-77
2022/10/08 03:57:00;;;;;;;26.60;17.50;;;;;;;7.19;80.19;99160.67;86620;1287;22588;-78
2022/10/08 03:59:02;;;;;;;26.60;18.30;;;;;;;7.16;80.05;99158.83;86529;1309;98046;-77
2022/10/08 04:01:07;;;;;;;24.10;17.00;;;;;;;7.15;80.24;99159.94;86628;1295;22490;-78
2022/10/08 04:03:11;;;;;;;21.30;16.90;;;;;;;7.16;80.38;99157.46;86704;1294;22548;-77
2022/10/08 04:05:13;;;;;;;21.90;16.70;;;;;;;7.17;80.34;99159.17;86654;1307;98994;-76
2022/10/08 04:07:14;;;;;;;25.90;17.30;;;;;;;7.17;79.93;99158.48;86650;1309;22508;-78
2022/10/08 04:09:16;;;;;;;32.80;17.70;;;;;;;7.11;80.15;99154.64;86598;1301;24148;-78
2022/10/08 04:11:18;;;;;;;25.10;16.30;;;;;;;7.10;80.17;99162.89;86678;1308;102321;-78
2022/10/08 04:13:21;;;;;;;22.80;15.20;;;;;;;7.10;80.25;99165.51;86613;1310;23078;-77
2022/10/08 04:15:23;;;;;;;29.00;18.30;;;;;;;7.08;80.16;99163.81;86746;1309;22926;-77
2022/10/08 04:17:24;;;;;;;23.30;15.40;;;;;;;7.07;80.03;99165.07;86562;1306;97659;-77
2022/10/08 04:19:26;;;;;;;25.40;16.20;;;;;;;7.06;80.20;99166.17;86469;1310;24385;-78
2022/10/08 04:21:28;;;;;;;40.00;17.30;;;;;;;7.04;80.32;99163.96;86751;1304;22561;-77
2022/10/08 04:23:33;;;;;;;28.20;17.50;;;;;;;7.03;80.21;99163.63;86570;1310;98850;-78
2022/10/08 04:25:35;;;;;;;37.40;17.00;;;;;;;7.02;79.89;99163.67;86555;1283;23001;-77
2022/10/08 04:27:36;;;;;;;39.30;18.30;;;;;;;6.99;79.82;99164.25;86498;1310;22505;-77
2022/10/08 04:29:38;;;;;;;22.40;16.10;;;;;;;6.98;80.18;99164.27;86540;1295;98014;-77
2022/10/08 04:31:39;;;;;;;37.10;17.20;;;;;;;6.96;79.88;99162.95;86498;1310;22515;-78
2022/10/08 04:33:42;;;;;;;30.60;16.30;;;;;;;6.95;80.12;99161.41;86671;1309;22542;-78
2022/10/08 04:35:44;;;;;;;32.40;16.20;;;;;;;6.94;79.99;99160.55;86622;1292;97693;-77
2022/10/08 04:37:45;;;;;;;21.90;16.10;;;;;;;6.93;80.24;99159.19;86660;1309;22552;-77
2022/10/08 04:39:47;;;;;;;52.60;19.00;;;;;;;6.94;80.33;99160.38;86686;1306;25272;-76
2022/10/08 04:41:49;;;;;;;63.20;18.40;;;;;;;6.92;80.18;99157.99;86647;1293;97691;-78
2022/10/08 04:43:52;;;;;;;53.70;18.70;;;;;;;6.91;80.44;99156.29;86669;1309;23856;-78
2022/10/08 04:45:54;;;;;;;45.90;17.80;;;;;;;6.90;80.32;99150.91;86654;1294;22490;-77
2022/10/08 04:47:55;;;;;;;58.60;20.20;;;;;;;6.90;80.43;99154.39;86634;1309;97715;-77
2022/10/08 04:49:57;;;;;;;46.30;19.40;;;;;;;6.91;80.41;99154.71;86733;1307;22453;-78
2022/10/08 04:51:58;;;;;;;66.10;19.40;;;;;;;6.92;80.49;99152.07;86786;1310;25230;-79
2022/10/08 04:54:00;;;;;;;56.90;20.30;;;;;;;6.93;80.36;99153.07;86719;1304;97941;-78
2022/10/08 04:56:15;;;;;;;63.40;17.70;;;;;;;6.94;80.62;99153.05;86744;1288;22525;-78
2022/10/08 04:58:17;;;;;;;39.10;17.80;;;;;;;6.93;80.48;99155.36;86656;1301;22520;-78
2022/10/08 05:00:19;;;;;;;63.80;19.90;;;;;;;6.90;80.46;99153.01;86621;1309;97735;-78
2022/10/08 05:02:20;;;;;;;48.20;18.10;;;;;;;6.88;80.63;99154.11;86732;1306;22508;-78
2022/10/08 05:04:22;;;;;;;48.40;18.00;;;;;;;6.88;80.70;99154.80;86657;1301;22514;-78
2022/10/08 05:06:27;;;;;;;56.40;17.80;;;;;;;6.88;80.38;99153.06;86660;1295;99473;-77
2022/10/08 05:08:29;;;;;;;41.20;18.20;;;;;;;6.86;80.74;99149.80;86686;1309;22434;-76
2022/10/08 05:10:30;;;;;;;77.90;19.40;;;;;;;6.86;80.41;99150.66;86707;1310;22449;-78
2022/10/08 05:12:32;;;;;;;71.50;18.50;;;;;;;6.83;80.74;99148.84;86685;1295;98896;-78
2022/10/08 05:14:34;;;;;;;63.70;19.20;;;;;;;6.88;80.54;99146.44;86683;1307;22505;-78
2022/10/08 05:16:35;;;;;;;47.90;19.00;;;;;;;6.88;80.67;99148.16;86647;1310;22461;-77
2022/10/08 05:18:39;;;;;;;52.40;18.10;;;;;;;6.88;80.68;99149.39;86578;1309;99401;-78
2022/10/08 05:20:40;;;;;;;56.90;19.00;;;;;;;6.88;80.59;99147.84;86661;1278;24323;-78
2022/10/08 05:22:42;;;;;;;48.70;18.20;;;;;;;6.85;80.57;99149.11;86763;1309;25237;-78
2022/10/08 05:24:44;;;;;;;46.50;18.10;;;;;;;6.84;80.47;99153.89;87020;1286;97516;-77
2022/10/08 05:26:45;;;;;;;39.70;16.90;;;;;;;6.82;80.69;99157.60;86708;1295;22609;-77
2022/10/08 05:28:48;;;;;;;59.50;19.40;;;;;;;6.81;80.70;99161.29;86941;1307;22590;-78
2022/10/08 05:30:49;;;;;;;52.60;20.80;;;;;;;6.82;80.75;99163.89;86757;1310;22543;-77
2022/10/08 05:32:51;;;;;;;77.40;19.80;;;;;;;6.84;80.85;99163.65;86862;1309;22787;-79
2022/10/08 05:34:53;;;;;;;72.40;19.90;;;;;;;6.88;80.78;99165.81;87174;1310;97763;-79
2022/10/08 05:36:55;;;;;;;52.90;18.10;;;;;;;6.92;80.85;99166.57;86900;1310;22446;-78
2022/10/08 05:38:59;;;;;;;53.60;19.80;;;;;;;6.92;81.13;99167.44;86920;1303;22485;-78
2022/10/08 05:41:09;;;;;;;41.20;18.20;;;;;;;6.93;80.80;99171.58;86898;1308;98961;-77
2022/10/08 05:43:11;;;;;;;52.90;18.40;;;;;;;6.94;80.88;99173.67;86761;1295;22552;-77
2022/10/08 05:45:13;;;;;;;51.40;20.00;;;;;;;6.97;81.10;99180.04;86803;1286;24261;-77
2022/10/08 05:47:14;;;;;;;36.80;19.60;;;;;;;6.99;81.04;99177.55;86574;1285;97882;-76
2022/10/08 05:49:19;;;;;;;32.00;19.40;;;;;;;7.04;81.28;99182.10;86694;1310;22611;-79
2022/10/08 05:51:22;;;;;;;38.70;18.60;;;;;;;7.08;81.18;99183.40;86650;1309;22931;-79
2022/10/08 05:53:23;;;;;;;45.10;19.90;;;;;;;7.11;81.10;99186.44;87134;1306;97706;-78
2022/10/08 05:55:26;;;;;;;59.40;21.20;;;;;;;7.15;81.36;99188.23;86540;1311;22498;-79
2022/10/08 05:57:27;;;;;;;86.40;22.00;;;;;;;7.20;81.40;99188.42;86755;1309;22536;-79
2022/10/08 05:59:29;;;;;;;81.90;21.50;;;;;;;7.24;81.40;99191.26;87205;1303;97705;-79
2022/10/08 06:01:32;;;;;;;57.50;21.00;;;;;;;7.30;81.37;99192.14;87083;1310;22446;-80
2022/10/08 06:03:35;;;;;;;55.00;20.60;;;;;;;7.36;81.19;99192.64;87212;1292;24712;-79
2022/10/08 06:05:36;;;;;;;61.40;20.60;;;;;;;7.41;81.57;99193.21;87009;1308;97821;-79
2022/10/08 06:07:38;;;;;;;32.80;20.50;;;;;;;7.45;81.30;99191.15;87112;1306;25364;-79
2022/10/08 06:09:39;;;;;;;39.70;20.50;;;;;;;7.51;81.56;99190.08;87033;1300;22544;-78
2022/10/08 06:11:41;;;;;;;43.60;20.30;;;;;;;7.56;81.21;99191.67;86958;1307;97759;-78
2022/10/08 06:13:43;;;;;;;67.70;21.20;;;;;;;7.60;81.26;99189.77;87173;1310;22665;-79
2022/10/08 06:15:56;;;;;;;35.80;20.50;;;;;;;7.65;81.38;99188.75;87201;1308;22496;-78
2022/10/08 06:18:00;;;;;;;28.10;19.50;;;;;;;7.71;81.41;99190.85;86676;1309;97753;-78
2022/10/08 06:20:02;;;;;;;39.20;21.30;;;;;;;7.75;81.67;99190.87;86598;1306;23852;-78
2022/10/08 06:22:04;;;;;;;31.90;19.50;;;;;;;7.82;81.89;99196.23;86857;1301;22570;-80
2022/10/08 06:24:08;;;;;;;32.60;19.30;;;;;;;7.88;81.51;99193.59;87031;1278;97773;-80
2022/10/08 06:26:10;;;;;;;30.00;20.00;;;;;;;7.95;81.65;99194.06;86975;1287;22965;-77
2022/10/08 06:28:11;;;;;;;34.30;21.30;;;;;;;8.02;81.78;99190.66;86988;1310;22616;-80
2022/10/08 06:30:13;;;;;;;36.90;20.20;;;;;;;8.09;81.83;99192.88;87022;1310;97822;-78
2022/10/08 06:32:15;;;;;;;36.20;21.70;;;;;;;8.16;82.06;99189.83;86909;1292;22578;-78
2022/10/08 06:34:16;;;;;;;49.60;21.60;;;;;;;8.25;82.06;99193.04;86570;1310;24586;-78
2022/10/08 06:36:24;;;;;;;34.50;20.90;;;;;;;8.34;82.03;99194.80;86614;1307;98858;-79
2022/10/08 06:38:26;;;;;;;37.00;21.50;;;;;;;8.43;81.83;99195.02;86872;1301;24162;-78
2022/10/08 06:40:30;;;;;;;45.10;21.10;;;;;;;8.52;82.02;99198.06;87065;1292;22512;-78
2022/10/08 06:42:32;;;;;;;45.50;22.00;;;;;;;8.61;81.86;99202.11;86884;1303;97975;-79
2022/10/08 06:44:33;;;;;;;60.30;21.50;;;;;;;8.68;81.96;99204.98;86882;1310;23432;-78
2022/10/08 06:46:35;;;;;;;55.30;21.80;;;;;;;8.76;81.89;99201.75;86625;1285;22583;-80
2022/10/08 06:48:37;;;;;;;39.20;21.40;;;;;;;8.84;81.98;99205.65;86536;1285;99069;-77
2022/10/08 06:50:40;;;;;;;48.70;21.70;;;;;;;8.93;81.95;99201.98;86591;1306;22520;-78
2022/10/08 06:52:41;;;;;;;39.90;20.30;;;;;;;9.03;82.37;99203.02;86671;1293;25254;-76
2022/10/08 06:54:43;;;;;;;44.40;21.10;;;;;;;9.13;82.15;99205.98;86337;1288;99034;-77
2022/10/08 06:56:44;;;;;;;45.10;20.10;;;;;;;9.22;82.29;99206.31;86265;1285;22576;-76
2022/10/08 06:58:46;;;;;;;41.10;19.20;;;;;;;9.32;82.27;99206.05;86373;1301;25233;-76
2022/10/08 07:00:48;;;;;;;30.50;18.40;;;;;;;9.42;82.14;99206.39;86379;1287;25235;-78
2022/10/08 07:02:50;;;;;;;30.20;18.90;;;;;;;9.52;82.15;99201.25;86485;1309;22731;-75
2022/10/08 07:04:51;;;;;;;30.10;19.40;;;;;;;9.63;82.09;99193.65;86057;1284;98953;-74
2022/10/08 07:06:53;;;;;;;35.80;19.60;;;;;;;9.66;82.04;99188.05;86352;1282;22832;-76
2022/10/08 07:08:58;;;;;;;40.00;19.00;;;;;;;9.82;82.11;99196.19;86250;1292;24267;-76
2022/10/08 07:11:30;;;;;;;40.10;19.90;;;;;;;9.93;82.11;99195.57;86251;1288;99070;-75
2022/10/08 07:13:36;;;;;;;38.80;19.60;;;;;;;10.05;82.19;99193.13;86252;1279;22502;-75
2022/10/08 07:15:38;;;;;;;43.50;20.00;;;;;;;10.15;82.32;99191.30;86154;1292;22696;-75
2022/10/08 07:17:39;;;;;;;34.00;20.50;;;;;;;10.25;82.27;99188.42;86291;1277;99126;-75
2022/10/08 07:19:41;;;;;;;36.10;19.50;;;;;;;10.33;82.26;99181.91;86287;1282;22567;-77
2022/10/08 07:21:42;;;;;;;35.30;20.80;;;;;;;10.43;82.12;99184.69;86637;1285;22528;-79
2022/10/08 07:23:44;;;;;;;36.30;19.50;;;;;;;10.50;82.14;99180.48;86522;1303;98556;-79
2022/10/08 07:26:08;;;;;;;29.20;20.00;;;;;;;10.58;82.16;99181.02;86797;1287;22482;-80
2022/10/08 07:28:10;;;;;;;36.40;20.20;;;;;;;10.71;82.27;99180.78;86744;1278;22498;-79
2022/10/08 07:30:12;;;;;;;30.10;20.20;;;;;;;10.84;82.27;99177.73;86622;1298;99699;-79
2022/10/08 07:32:13;;;;;;;29.50;20.90;;;;;;;10.95;82.22;99180.55;86707;1292;22478;-80
2022/10/08 07:34:15;;;;;;;30.90;21.50;;;;;;;11.10;82.42;99182.52;86634;1301;23870;-79
2022/10/08 07:36:19;;;;;;;50.30;21.40;;;;;;;11.17;82.27;99174.45;86595;1310;99269;-78
2022/10/08 07:38:21;;;;;;;32.60;20.50;;;;;;;11.36;82.21;99182.32;86811;1289;22477;-80
2022/10/08 07:40:22;;;;;;;32.00;21.00;;;;;;;11.46;82.30;99181.32;86541;1294;22990;-80
2022/10/08 07:42:24;;;;;;;36.70;20.80;;;;;;;11.62;82.30;99183.90;86588;1295;99082;-79
2022/10/08 07:44:26;;;;;;;39.40;21.50;;;;;;;11.75;82.31;99187.13;86526;1295;24234;-79
2022/10/08 07:46:33;;;;;;;35.30;21.30;;;;;;;11.88;82.40;99187.36;86575;1307;23007;-79
2022/10/08 07:48:35;;;;;;;40.90;20.90;;;;;;;11.99;82.24;99182.80;86773;1310;99439;-78
2022/10/08 07:50:36;;;;;;;31.80;20.40;;;;;;;12.06;82.04;99179.78;86425;1296;22849;-78
2022/10/08 07:52:38;;;;;;;36.80;19.00;;;;;;;12.14;82.01;99178.37;86534;1295;22548;-79
2022/10/08 07:54:41;;;;;;;35.90;20.00;;;;;;;12.21;81.85;99175.53;86289;1303;98263;-78
2022/10/08 07:56:43;;;;;;;38.50;19.50;;;;;;;12.28;82.04;99170.38;86405;1287;22646;-78
2022/10/08 07:58:46;;;;;;;42.90;21.60;;;;;;;12.37;81.83;99168.48;86438;1309;22490;-79
2022/10/08 08:00:48;;;;;;;40.30;19.80;;;;;;;12.44;81.81;99167.77;86348;1310;97716;-78
2022/10/08 08:02:49;;;;;;;31.30;19.20;;;;;;;12.54;81.79;99170.45;86555;1310;24263;-78
2022/10/08 08:04:51;;;;;;;33.80;20.60;;;;;;;12.64;81.98;99163.94;86416;1292;99287;-78
2022/10/08 08:06:52;;;;;;;36.10;20.10;;;;;;;12.76;81.88;99164.02;86516;1296;22499;-78
2022/10/08 08:08:55;;;;;;;31.70;19.80;;;;;;;12.88;81.80;99158.77;86390;1309;22538;-79
2022/10/08 08:11:03;;;;;;;34.50;19.00;;;;;;;13.00;81.75;99159.33;86488;1293;98040;-79
2022/10/08 08:13:04;;;;;;;31.80;18.50;;;;;;;13.12;81.65;99160.44;86499;1284;22521;-79
2022/10/08 08:15:06;;;;;;;36.10;18.30;;;;;;;13.24;81.60;99164.19;86384;1310;23155;-79
2022/10/08 08:17:08;;;;;;;37.20;19.20;;;;;;;13.36;81.50;99160.70;86342;1295;98162;-79
2022/10/08 08:19:09;;;;;;;24.90;16.50;;;;;;;13.47;81.45;99157.79;86173;1312;22512;-81
2022/10/08 08:21:20;;;;;;;29.30;17.10;;;;;;;13.60;81.20;99158.63;86477;1292;22505;-79
2022/10/08 08:23:21;;;;;;;35.30;18.50;;;;;;;13.85;81.59;99161.41;86290;1294;97944;-78
2022/10/08 08:25:23;;;;;;;25.50;17.80;;;;;;;14.09;81.55;99159.64;86287;1294;22611;-78
2022/10/08 08:27:25;;;;;;;23.70;17.40;;;;;;;14.33;81.43;99156.61;86382;1285;22598;-78
2022/10/08 08:29:26;;;;;;;25.00;16.70;;;;;;;14.53;81.42;99153.98;86206;1303;97869;-79
2022/10/08 08:31:30;;;;;;;33.00;16.10;;;;;;;14.71;81.19;99158.80;86358;1294;22534;-78
2022/10/08 08:33:32;;;;;;;23.00;15.40;;;;;;;14.92;81.10;99152.85;86271;1312;25105;-78
2022/10/08 08:35:33;;;;;;;23.30;14.10;;;;;;;15.09;80.87;99156.23;86206;1307;97821;-79
2022/10/08 08:37:35;;;;;;;29.80;12.80;;;;;;;15.22;80.58;99157.17;86205;1294;25853;-80
2022/10/08 08:39:37;;;;;;;19.90;12.60;;;;;;;15.32;80.51;99156.89;86377;1292;22478;-77
2022/10/08 08:41:49;;;;;;;18.20;11.00;;;;;;;15.49;80.44;99158.77;86331;1295;99116;-80
2022/10/08 08:44:00;;;;;;;21.30;10.90;;;;;;;15.67;80.33;99156.20;86479;1292;22587;-78
2022/10/08 08:46:02;;;;;;;23.00;10.40;;;;;;;15.80;80.06;99152.85;86507;1309;22483;-79
2022/10/08 08:48:22;;;;;;;15.90;10.20;;;;;;;15.94;80.04;99149.84;86728;1288;99130;-79
2022/10/08 08:50:28;;;;;;;13.70;8.30;;;;;;;16.08;79.76;99150.95;86442;1298;23230;-78
2022/10/08 08:52:37;;;;;;;14.60;8.20;;;;;;;16.24;79.67;99150.45;86335;1295;22492;-79
2022/10/08 08:54:39;;;;;;;22.70;9.10;;;;;;;16.36;79.41;99151.94;86779;1285;99267;-79
2022/10/08 08:56:41;;;;;;;21.10;8.80;;;;;;;16.40;79.02;99146.28;86682;1286;22669;-79
2022/10/08 08:59:01;;;;;;;21.30;9.60;;;;;;;16.46;78.92;99148.21;86725;1285;22944;-78
2022/10/08 09:01:09;;;;;;;17.00;9.80;;;;;;;16.49;78.56;99150.09;86755;1280;22513;-79
2022/10/08 09:03:32;;;;;;;27.60;9.60;;;;;;;16.49;78.50;99149.55;86850;1301;22432;-81
2022/10/08 09:05:40;;;;;;;13.40;9.00;;;;;;;16.57;78.74;99150.31;87640;1292;98232;-88
2022/10/08 09:08:04;;;;;;;15.00;9.30;;;;;;;16.72;78.87;99146.69;87390;1306;25203;-85
2022/10/08 09:10:15;;;;;;;14.60;10.10;;;;;;;16.92;78.56;99140.55;87369;1310;22688;-86
2022/10/08 09:12:42;;;;;;;15.30;8.90;;;;;;;16.97;78.12;99135.55;87205;1300;98877;-86
2022/10/08 09:14:46;;;;;;;;;;;;;;;17.09;78.08;99140.97;87373;1310;22414;-85
2022/10/08 09:16:48;;;;;;;14.30;7.60;;;;;;;17.18;78.06;99139.61;87373;1309;23457;-86
2022/10/08 09:18:51;;;;;;;15.90;7.60;;;;;;;17.30;78.01;99137.48;87201;1319;97875;-85
2022/10/08 09:20:53;;;;;;;15.70;7.60;;;;;;;17.42;77.73;99136.61;87398;1313;22494;-86
2022/10/08 09:22:55;;;;;;;8.00;7.20;;;;;;;17.43;77.30;99130.65;87623;1310;22502;-85
2022/10/08 09:25:00;;;;;;;26.00;7.10;;;;;;;17.46;77.66;99136.45;86884;1293;97676;-75
2022/10/08 09:27:10;;;;;;;20.20;7.00;;;;;;;17.62;77.59;99135.96;86734;1292;22417;-82
2022/10/08 09:29:31;;;;;;;11.80;6.40;;;;;;;17.77;77.38;99133.81;86818;1288;98581;-80
2022/10/08 09:31:39;;;;;;;16.60;7.00;;;;;;;17.95;77.25;99137.25;87024;1287;22491;-79
2022/10/08 09:33:41;;;;;;;9.70;6.30;;;;;;;18.03;76.76;99141.10;87030;1308;22469;-79
2022/10/08 09:35:45;;;;;;;11.30;5.80;;;;;;;18.07;76.78;99140.29;86853;1309;99452;-79
2022/10/08 09:37:48;;;;;;;11.20;5.80;;;;;;;18.15;76.51;99135.02;87012;1301;22507;-79
2022/10/08 09:40:27;;;;;;;8.10;5.70;;;;;;;18.21;76.33;99128.17;87003;1309;22624;-80
2022/10/08 09:42:30;;;;;;;6.50;5.90;;;;;;;18.38;76.13;99127.07;86707;1298;97787;-80